sensor_id;sensor_type;location;lat;lon;timestamp;temperature;humidity
35129;DHT22;21301;43.626;10.580;2022-11-02T00:00:47;15.20;99.90
35129;DHT22;21301;43.626;10.580;2022-11-02T00:03:13;15.10;99.90
35129;DHT22;21301;43.626;10.580;2022-11-02T00:05:39;15.10;99.90
35129;DHT22;21301;43.626;10.580;2022-11-02T00:08:05;15.10;99.90
35129;DHT22;21301;43.626;10.580;2022-11-02T00:10:30;15.10;99.90
35129;DHT22;21301;43.626;10.580;2022-11-02T00:12:56;15.00;99.90
35129;DHT22;21301;43.626;10.580;2022-11-02T00:15:27;14.90;99.90
35129;DHT22;21301;43.626;10.580;2022-11-02T00:18:02;15.00;99.90
35129;DHT22;21301;43.626;10.580;2022-11-02T00:20:29;15.00;99.90
35129;DHT22;21301;43.626;10.580;2022-11-02T00:22:56;14.90;99.90
35129;DHT22;21301;43.626;10.580;2022-11-02T00:25:24;14.90;99.90
35129;DHT22;21301;43.626;10.580;2022-11-02T00:27:51;14.90;99.90
35129;DHT22;21301;43.626;10.580;2022-11-02T00:30:18;14.80;99.90
35129;DHT22;21301;43.626;10.580;2022-11-02T00:32:44;14.80;99.90
35129;DHT22;21301;43.626;10.580;2022-11-02T00:35:10;14.80;99.90
35129;DHT22;21301;43.626;10.580;2022-11-02T00:37:36;14.70;99.90
35129;DHT22;21301;43.626;10.580;2022-11-02T00:40:02;14.70;99.90
35129;DHT22;21301;43.626;10.580;2022-11-02T00:42:28;14.70;99.90
35129;DHT22;21301;43.626;10.580;2022-11-02T00:44:54;14.60;99.90
35129;DHT22;21301;43.626;10.580;2022-11-02T00:47:19;14.70;99.90
35129;DHT22;21301;43.626;10.580;2022-11-02T00:49:45;14.40;99.90
35129;DHT22;21301;43.626;10.580;2022-11-02T00:52:11;14.30;99.90
35129;DHT22;21301;43.626;10.580;2022-11-02T00:54:37;14.40;99.90
35129;DHT22;21301;43.626;10.580;2022-11-02T00:57:03;14.50;99.90
35129;DHT22;21301;43.626;10.580;2022-11-02T00:59:28;14.50;99.90
35129;DHT22;21301;43.626;10.580;2022-11-02T01:01:56;14.50;99.90
35129;DHT22;21301;43.626;10.580;2022-11-02T01:04:21;14.50;99.90
35129;DHT22;21301;43.626;10.580;2022-11-02T01:06:47;14.50;99.90
35129;DHT22;21301;43.626;10.580;2022-11-02T01:09:14;14.50;99.90
35129;DHT22;21301;43.626;10.580;2022-11-02T01:11:41;14.50;99.90
35129;DHT22;21301;43.626;10.580;2022-11-02T01:14:08;14.50;99.90
35129;DHT22;21301;43.626;10.580;2022-11-02T01:16:34;14.50;99.90
35129;DHT22;21301;43.626;10.580;2022-11-02T01:19:00;14.50;99.90
35129;DHT22;21301;43.626;10.580;2022-11-02T01:21:27;14.40;99.90
35129;DHT22;21301;43.626;10.580;2022-11-02T01:23:54;14.40;99.90
35129;DHT22;21301;43.626;10.580;2022-11-02T01:26:20;14.40;99.90
35129;DHT22;21301;43.626;10.580;2022-11-02T01:28:46;14.40;99.90
35129;DHT22;21301;43.626;10.580;2022-11-02T01:31:12;14.30;99.90
35129;DHT22;21301;43.626;10.580;2022-11-02T01:33:42;14.20;99.90
35129;DHT22;21301;43.626;10.580;2022-11-02T01:36:09;14.20;99.90
35129;DHT22;21301;43.626;10.580;2022-11-02T01:38:35;14.20;99.90
35129;DHT22;21301;43.626;10.580;2022-11-02T01:41:01;14.10;99.90
35129;DHT22;21301;43.626;10.580;2022-11-02T01:43:30;14.10;99.90
35129;DHT22;21301;43.626;10.580;2022-11-02T01:48:46;14.10;99.90
35129;DHT22;21301;43.626;10.580;2022-11-02T01:51:15;14.00;99.90
35129;DHT22;21301;43.626;10.580;2022-11-02T01:53:44;14.00;99.90
35129;DHT22;21301;43.626;10.580;2022-11-02T01:56:15;14.00;99.90
35129;DHT22;21301;43.626;10.580;2022-11-02T01:58:45;13.90;99.90
35129;DHT22;21301;43.626;10.580;2022-11-02T02:01:11;13.80;99.90
35129;DHT22;21301;43.626;10.580;2022-11-02T02:03:37;13.80;99.90
35129;DHT22;21301;43.626;10.580;2022-11-02T02:06:14;13.70;99.90
35129;DHT22;21301;43.626;10.580;2022-11-02T02:08:45;13.80;99.90
35129;DHT22;21301;43.626;10.580;2022-11-02T02:11:31;13.70;99.90
35129;DHT22;21301;43.626;10.580;2022-11-02T02:14:05;13.70;99.90
35129;DHT22;21301;43.626;10.580;2022-11-02T02:16:56;13.70;99.90
35129;DHT22;21301;43.626;10.580;2022-11-02T02:28:16;13.70;99.90
35129;DHT22;21301;43.626;10.580;2022-11-02T02:31:02;13.60;99.90
35129;DHT22;21301;43.626;10.580;2022-11-02T02:36:08;13.60;99.90
35129;DHT22;21301;43.626;10.580;2022-11-02T02:41:37;13.60;99.90
35129;DHT22;21301;43.626;10.580;2022-11-02T02:44:07;13.50;99.90
35129;DHT22;21301;43.626;10.580;2022-11-02T02:49:08;13.60;99.90
35129;DHT22;21301;43.626;10.580;2022-11-02T02:51:37;13.60;99.90
35129;DHT22;21301;43.626;10.580;2022-11-02T02:54:16;13.60;99.90
35129;DHT22;21301;43.626;10.580;2022-11-02T02:56:47;13.60;99.90
35129;DHT22;21301;43.626;10.580;2022-11-02T02:59:23;13.60;99.90
35129;DHT22;21301;43.626;10.580;2022-11-02T03:01:50;13.70;99.90
35129;DHT22;21301;43.626;10.580;2022-11-02T03:04:16;13.60;99.90
35129;DHT22;21301;43.626;10.580;2022-11-02T03:06:46;13.70;99.90
35129;DHT22;21301;43.626;10.580;2022-11-02T03:15:08;13.50;99.90
35129;DHT22;21301;43.626;10.580;2022-11-02T03:18:22;13.50;99.90
35129;DHT22;21301;43.626;10.580;2022-11-02T03:23:57;13.50;99.90
35129;DHT22;21301;43.626;10.580;2022-11-02T03:26:45;13.60;99.90
35129;DHT22;21301;43.626;10.580;2022-11-02T03:29:23;13.60;99.90
35129;DHT22;21301;43.626;10.580;2022-11-02T03:32:00;13.50;99.90
35129;DHT22;21301;43.626;10.580;2022-11-02T03:37:12;13.40;99.90
35129;DHT22;21301;43.626;10.580;2022-11-02T03:42:17;13.30;99.90
35129;DHT22;21301;43.626;10.580;2022-11-02T03:44:48;13.30;99.90
35129;DHT22;21301;43.626;10.580;2022-11-02T03:47:16;13.20;99.90
35129;DHT22;21301;43.626;10.580;2022-11-02T03:49:46;13.20;99.90
35129;DHT22;21301;43.626;10.580;2022-11-02T03:52:22;13.10;99.90
35129;DHT22;21301;43.626;10.580;2022-11-02T03:57:33;13.10;99.90
35129;DHT22;21301;43.626;10.580;2022-11-02T04:00:19;13.10;99.90
35129;DHT22;21301;43.626;10.580;2022-11-02T04:02:58;13.10;99.90
35129;DHT22;21301;43.626;10.580;2022-11-02T04:05:29;13.10;99.90
35129;DHT22;21301;43.626;10.580;2022-11-02T04:07:57;13.10;99.90
35129;DHT22;21301;43.626;10.580;2022-11-02T04:10:42;13.10;99.90
35129;DHT22;21301;43.626;10.580;2022-11-02T04:13:28;13.00;99.90
35129;DHT22;21301;43.626;10.580;2022-11-02T04:16:13;13.00;99.90
35129;DHT22;21301;43.626;10.580;2022-11-02T04:18:40;13.00;99.90
35129;DHT22;21301;43.626;10.580;2022-11-02T04:21:25;13.00;99.90
35129;DHT22;21301;43.626;10.580;2022-11-02T04:23:52;13.00;99.90
35129;DHT22;21301;43.626;10.580;2022-11-02T04:26:36;12.90;99.90
35129;DHT22;21301;43.626;10.580;2022-11-02T04:29:02;12.80;99.90
35129;DHT22;21301;43.626;10.580;2022-11-02T04:31:29;12.80;99.90
35129;DHT22;21301;43.626;10.580;2022-11-02T04:33:55;12.80;99.90
35129;DHT22;21301;43.626;10.580;2022-11-02T04:36:23;12.90;99.90
35129;DHT22;21301;43.626;10.580;2022-11-02T04:38:54;12.90;99.90
35129;DHT22;21301;43.626;10.580;2022-11-02T04:41:26;12.90;99.90
35129;DHT22;21301;43.626;10.580;2022-11-02T04:44:13;12.90;99.90
35129;DHT22;21301;43.626;10.580;2022-11-02T04:46:43;13.00;99.90
35129;DHT22;21301;43.626;10.580;2022-11-02T04:49:10;12.90;99.90
35129;DHT22;21301;43.626;10.580;2022-11-02T04:51:37;12.90;99.90
35129;DHT22;21301;43.626;10.580;2022-11-02T04:54:06;12.70;99.90
35129;DHT22;21301;43.626;10.580;2022-11-02T04:56:32;12.60;99.90
35129;DHT22;21301;43.626;10.580;2022-11-02T04:58:59;12.60;99.90
35129;DHT22;21301;43.626;10.580;2022-11-02T05:01:27;12.60;99.90
35129;DHT22;21301;43.626;10.580;2022-11-02T05:03:54;12.60;99.90
35129;DHT22;21301;43.626;10.580;2022-11-02T05:06:23;12.60;99.90
35129;DHT22;21301;43.626;10.580;2022-11-02T05:08:50;12.50;99.90
35129;DHT22;21301;43.626;10.580;2022-11-02T05:11:16;12.40;99.90
35129;DHT22;21301;43.626;10.580;2022-11-02T05:13:42;12.40;99.90
35129;DHT22;21301;43.626;10.580;2022-11-02T05:16:12;12.40;99.90
35129;DHT22;21301;43.626;10.580;2022-11-02T05:18:38;12.40;99.90
35129;DHT22;21301;43.626;10.580;2022-11-02T05:21:05;12.40;99.90
35129;DHT22;21301;43.626;10.580;2022-11-02T05:23:31;12.40;99.90
35129;DHT22;21301;43.626;10.580;2022-11-02T05:26:00;12.50;99.90
35129;DHT22;21301;43.626;10.580;2022-11-02T05:28:29;12.60;99.90
35129;DHT22;21301;43.626;10.580;2022-11-02T05:30:58;12.70;99.90
35129;DHT22;21301;43.626;10.580;2022-11-02T05:33:31;12.70;99.90
35129;DHT22;21301;43.626;10.580;2022-11-02T05:35:59;12.60;99.90
35129;DHT22;21301;43.626;10.580;2022-11-02T05:38:27;12.70;99.90
35129;DHT22;21301;43.626;10.580;2022-11-02T05:40:55;12.60;99.90
35129;DHT22;21301;43.626;10.580;2022-11-02T05:43:24;12.60;99.90
35129;DHT22;21301;43.626;10.580;2022-11-02T05:45:58;12.60;99.90
35129;DHT22;21301;43.626;10.580;2022-11-02T05:48:26;12.60;99.90
35129;DHT22;21301;43.626;10.580;2022-11-02T05:50:56;12.50;99.90
35129;DHT22;21301;43.626;10.580;2022-11-02T05:53:23;12.50;99.90
35129;DHT22;21301;43.626;10.580;2022-11-02T05:55:49;12.50;99.90
35129;DHT22;21301;43.626;10.580;2022-11-02T05:58:15;12.50;99.90
35129;DHT22;21301;43.626;10.580;2022-11-02T06:00:41;12.50;99.90
35129;DHT22;21301;43.626;10.580;2022-11-02T06:03:07;12.50;99.90
35129;DHT22;21301;43.626;10.580;2022-11-02T06:05:33;12.70;99.90
35129;DHT22;21301;43.626;10.580;2022-11-02T06:08:00;12.80;99.90
35129;DHT22;21301;43.626;10.580;2022-11-02T06:10:28;13.00;99.90
35129;DHT22;21301;43.626;10.580;2022-11-02T06:12:59;13.00;99.90
35129;DHT22;21301;43.626;10.580;2022-11-02T06:15:25;13.20;99.90
35129;DHT22;21301;43.626;10.580;2022-11-02T06:17:51;13.20;99.90
35129;DHT22;21301;43.626;10.580;2022-11-02T06:20:17;13.20;99.90
35129;DHT22;21301;43.626;10.580;2022-11-02T06:22:43;13.40;99.90
35129;DHT22;21301;43.626;10.580;2022-11-02T06:25:09;13.40;99.90
35129;DHT22;21301;43.626;10.580;2022-11-02T06:27:35;13.60;99.90
35129;DHT22;21301;43.626;10.580;2022-11-02T06:30:03;13.60;99.90
35129;DHT22;21301;43.626;10.580;2022-11-02T06:32:30;13.90;99.90
35129;DHT22;21301;43.626;10.580;2022-11-02T06:34:55;14.30;99.90
35129;DHT22;21301;43.626;10.580;2022-11-02T06:37:21;14.50;99.90
35129;DHT22;21301;43.626;10.580;2022-11-02T06:39:48;14.50;99.90
35129;DHT22;21301;43.626;10.580;2022-11-02T06:42:14;14.90;99.90
35129;DHT22;21301;43.626;10.580;2022-11-02T06:44:39;15.50;99.90
35129;DHT22;21301;43.626;10.580;2022-11-02T06:47:05;16.10;99.90
35129;DHT22;21301;43.626;10.580;2022-11-02T06:49:31;16.80;99.90
35129;DHT22;21301;43.626;10.580;2022-11-02T06:51:57;17.90;99.90
35129;DHT22;21301;43.626;10.580;2022-11-02T06:54:23;18.80;99.90
35129;DHT22;21301;43.626;10.580;2022-11-02T06:56:49;19.00;99.90
35129;DHT22;21301;43.626;10.580;2022-11-02T06:59:14;18.80;99.90
35129;DHT22;21301;43.626;10.580;2022-11-02T07:01:40;17.90;99.90
35129;DHT22;21301;43.626;10.580;2022-11-02T07:04:06;18.00;99.90
35129;DHT22;21301;43.626;10.580;2022-11-02T07:06:32;17.10;99.90
35129;DHT22;21301;43.626;10.580;2022-11-02T07:08:57;16.90;99.90
35129;DHT22;21301;43.626;10.580;2022-11-02T07:11:23;16.60;99.90
35129;DHT22;21301;43.626;10.580;2022-11-02T07:13:49;16.10;99.90
35129;DHT22;21301;43.626;10.580;2022-11-02T07:16:15;16.00;99.90
35129;DHT22;21301;43.626;10.580;2022-11-02T07:18:40;16.50;99.90
35129;DHT22;21301;43.626;10.580;2022-11-02T07:21:06;16.60;99.90
35129;DHT22;21301;43.626;10.580;2022-11-02T07:23:34;16.30;99.90
35129;DHT22;21301;43.626;10.580;2022-11-02T07:26:01;16.30;99.90
35129;DHT22;21301;43.626;10.580;2022-11-02T07:28:27;16.20;99.90
35129;DHT22;21301;43.626;10.580;2022-11-02T07:30:53;16.30;99.90
35129;DHT22;21301;43.626;10.580;2022-11-02T07:33:19;17.20;99.90
35129;DHT22;21301;43.626;10.580;2022-11-02T07:35:45;17.90;99.90
35129;DHT22;21301;43.626;10.580;2022-11-02T07:38:11;18.20;99.90
35129;DHT22;21301;43.626;10.580;2022-11-02T07:40:37;18.30;99.90
35129;DHT22;21301;43.626;10.580;2022-11-02T07:43:04;18.50;99.90
35129;DHT22;21301;43.626;10.580;2022-11-02T07:45:45;18.60;99.90
35129;DHT22;21301;43.626;10.580;2022-11-02T07:48:12;18.90;99.90
35129;DHT22;21301;43.626;10.580;2022-11-02T07:50:38;18.60;99.90
35129;DHT22;21301;43.626;10.580;2022-11-02T07:53:04;18.30;99.90
35129;DHT22;21301;43.626;10.580;2022-11-02T07:55:30;18.20;99.90
35129;DHT22;21301;43.626;10.580;2022-11-02T07:57:59;18.10;99.90
35129;DHT22;21301;43.626;10.580;2022-11-02T08:00:27;18.30;99.90
35129;DHT22;21301;43.626;10.580;2022-11-02T08:02:54;18.60;99.90
35129;DHT22;21301;43.626;10.580;2022-11-02T08:05:20;19.30;99.90
35129;DHT22;21301;43.626;10.580;2022-11-02T08:07:45;19.30;99.90
35129;DHT22;21301;43.626;10.580;2022-11-02T08:10:11;19.70;99.90
35129;DHT22;21301;43.626;10.580;2022-11-02T08:12:37;19.50;99.90
35129;DHT22;21301;43.626;10.580;2022-11-02T08:15:03;19.60;99.90
35129;DHT22;21301;43.626;10.580;2022-11-02T08:17:29;19.40;99.90
35129;DHT22;21301;43.626;10.580;2022-11-02T08:19:55;19.40;99.90
35129;DHT22;21301;43.626;10.580;2022-11-02T08:22:20;19.80;99.90
35129;DHT22;21301;43.626;10.580;2022-11-02T08:24:46;19.60;99.90
35129;DHT22;21301;43.626;10.580;2022-11-02T08:27:12;19.10;99.90
35129;DHT22;21301;43.626;10.580;2022-11-02T08:29:38;18.70;99.90
35129;DHT22;21301;43.626;10.580;2022-11-02T08:32:04;18.50;99.90
35129;DHT22;21301;43.626;10.580;2022-11-02T08:34:29;18.30;99.90
35129;DHT22;21301;43.626;10.580;2022-11-02T08:36:56;18.10;99.90
35129;DHT22;21301;43.626;10.580;2022-11-02T08:39:22;18.10;99.90
35129;DHT22;21301;43.626;10.580;2022-11-02T08:41:48;18.00;99.90
35129;DHT22;21301;43.626;10.580;2022-11-02T08:44:13;18.00;99.90
35129;DHT22;21301;43.626;10.580;2022-11-02T08:46:39;17.90;99.90
35129;DHT22;21301;43.626;10.580;2022-11-02T08:49:05;17.70;99.90
35129;DHT22;21301;43.626;10.580;2022-11-02T08:51:31;17.70;99.90
35129;DHT22;21301;43.626;10.580;2022-11-02T08:53:56;17.60;99.90
35129;DHT22;21301;43.626;10.580;2022-11-02T08:56:22;17.60;99.90
35129;DHT22;21301;43.626;10.580;2022-11-02T08:58:48;17.60;99.90
35129;DHT22;21301;43.626;10.580;2022-11-02T09:01:14;18.00;99.90
35129;DHT22;21301;43.626;10.580;2022-11-02T09:03:39;18.30;99.90
35129;DHT22;21301;43.626;10.580;2022-11-02T09:06:05;18.60;99.90
35129;DHT22;21301;43.626;10.580;2022-11-02T09:08:31;18.80;99.90
35129;DHT22;21301;43.626;10.580;2022-11-02T09:11:00;19.20;99.90
35129;DHT22;21301;43.626;10.580;2022-11-02T09:13:26;19.50;99.90
35129;DHT22;21301;43.626;10.580;2022-11-02T09:15:54;19.90;99.90
35129;DHT22;21301;43.626;10.580;2022-11-02T09:18:21;20.00;99.90
35129;DHT22;21301;43.626;10.580;2022-11-02T09:20:47;20.00;99.90
35129;DHT22;21301;43.626;10.580;2022-11-02T09:23:17;20.00;99.90
35129;DHT22;21301;43.626;10.580;2022-11-02T09:25:44;20.00;99.90
35129;DHT22;21301;43.626;10.580;2022-11-02T09:28:10;20.50;99.90
35129;DHT22;21301;43.626;10.580;2022-11-02T09:30:37;20.90;99.90
35129;DHT22;21301;43.626;10.580;2022-11-02T09:33:04;21.10;99.90
35129;DHT22;21301;43.626;10.580;2022-11-02T09:35:36;21.30;99.90
35129;DHT22;21301;43.626;10.580;2022-11-02T09:38:02;21.10;99.90
35129;DHT22;21301;43.626;10.580;2022-11-02T09:40:34;21.20;99.90
35129;DHT22;21301;43.626;10.580;2022-11-02T09:43:23;21.10;99.90
35129;DHT22;21301;43.626;10.580;2022-11-02T09:46:02;21.20;99.90
35129;DHT22;21301;43.626;10.580;2022-11-02T09:48:42;21.30;99.90
35129;DHT22;21301;43.626;10.580;2022-11-02T09:51:17;21.10;99.90
35129;DHT22;21301;43.626;10.580;2022-11-02T09:56:33;21.50;99.90
35129;DHT22;21301;43.626;10.580;2022-11-02T09:59:02;21.70;99.90
35129;DHT22;21301;43.626;10.580;2022-11-02T10:05:07;22.10;99.90
35129;DHT22;21301;43.626;10.580;2022-11-02T10:10:48;22.30;99.90
35129;DHT22;21301;43.626;10.580;2022-11-02T10:16:35;22.60;99.90
35129;DHT22;21301;43.626;10.580;2022-11-02T10:18:53;22.80;99.90
35129;DHT22;21301;43.626;10.580;2022-11-02T10:21:26;23.00;99.90
35129;DHT22;21301;43.626;10.580;2022-11-02T10:23:54;23.10;99.90
35129;DHT22;21301;43.626;10.580;2022-11-02T10:26:31;23.00;99.90
35129;DHT22;21301;43.626;10.580;2022-11-02T10:29:03;23.00;99.90
35129;DHT22;21301;43.626;10.580;2022-11-02T10:31:34;23.20;99.90
35129;DHT22;21301;43.626;10.580;2022-11-02T10:39:34;22.60;99.90
35129;DHT22;21301;43.626;10.580;2022-11-02T10:45:01;22.70;99.90
35129;DHT22;21301;43.626;10.580;2022-11-02T10:47:40;22.90;99.90
35129;DHT22;21301;43.626;10.580;2022-11-02T10:50:24;23.00;99.90
35129;DHT22;21301;43.626;10.580;2022-11-02T10:52:55;22.90;99.90
35129;DHT22;21301;43.626;10.580;2022-11-02T10:55:44;23.00;99.90
35129;DHT22;21301;43.626;10.580;2022-11-02T10:58:18;23.40;99.90
35129;DHT22;21301;43.626;10.580;2022-11-02T11:00:44;23.40;99.90
35129;DHT22;21301;43.626;10.580;2022-11-02T11:03:14;23.30;99.90
35129;DHT22;21301;43.626;10.580;2022-11-02T11:06:03;23.60;99.90
35129;DHT22;21301;43.626;10.580;2022-11-02T11:11:18;23.40;99.90
35129;DHT22;21301;43.626;10.580;2022-11-02T11:16:39;23.90;99.90
35129;DHT22;21301;43.626;10.580;2022-11-02T11:19:19;23.80;99.90
35129;DHT22;21301;43.626;10.580;2022-11-02T11:21:46;24.10;99.90
35129;DHT22;21301;43.626;10.580;2022-11-02T11:24:33;24.30;99.90
35129;DHT22;21301;43.626;10.580;2022-11-02T11:27:18;24.10;99.90
35129;DHT22;21301;43.626;10.580;2022-11-02T11:29:55;24.10;99.90
35129;DHT22;21301;43.626;10.580;2022-11-02T11:32:24;23.90;99.90
35129;DHT22;21301;43.626;10.580;2022-11-02T11:35:02;23.30;99.90
35129;DHT22;21301;43.626;10.580;2022-11-02T11:37:29;23.40;99.90
35129;DHT22;21301;43.626;10.580;2022-11-02T11:40:04;23.30;99.90
35129;DHT22;21301;43.626;10.580;2022-11-02T11:42:34;23.50;99.90
35129;DHT22;21301;43.626;10.580;2022-11-02T11:45:05;23.50;99.90
35129;DHT22;21301;43.626;10.580;2022-11-02T11:47:36;23.50;99.90
35129;DHT22;21301;43.626;10.580;2022-11-02T11:50:09;23.30;99.90
35129;DHT22;21301;43.626;10.580;2022-11-02T11:52:35;23.10;99.90
35129;DHT22;21301;43.626;10.580;2022-11-02T11:55:57;23.20;99.90
35129;DHT22;21301;43.626;10.580;2022-11-02T11:58:30;23.00;99.90
35129;DHT22;21301;43.626;10.580;2022-11-02T12:03:55;23.00;99.90
35129;DHT22;21301;43.626;10.580;2022-11-02T12:14:44;23.10;99.90
35129;DHT22;21301;43.626;10.580;2022-11-02T12:22:32;23.60;99.90
35129;DHT22;21301;43.626;10.580;2022-11-02T12:25:15;23.70;99.90
35129;DHT22;21301;43.626;10.580;2022-11-02T12:28:07;23.90;99.90
35129;DHT22;21301;43.626;10.580;2022-11-02T12:36:24;24.20;99.90
35129;DHT22;21301;43.626;10.580;2022-11-02T12:39:19;23.70;99.90
35129;DHT22;21301;43.626;10.580;2022-11-02T12:42:18;23.40;99.90
35129;DHT22;21301;43.626;10.580;2022-11-02T12:47:24;22.60;99.90
35129;DHT22;21301;43.626;10.580;2022-11-02T12:55:18;22.40;99.90
35129;DHT22;21301;43.626;10.580;2022-11-02T12:57:45;22.50;99.90
35129;DHT22;21301;43.626;10.580;2022-11-02T13:00:19;22.60;99.90
35129;DHT22;21301;43.626;10.580;2022-11-02T13:02:56;22.90;99.90
35129;DHT22;21301;43.626;10.580;2022-11-02T13:05:54;23.10;99.90
35129;DHT22;21301;43.626;10.580;2022-11-02T13:11:19;23.30;99.90
35129;DHT22;21301;43.626;10.580;2022-11-02T13:13:50;23.30;99.90
35129;DHT22;21301;43.626;10.580;2022-11-02T13:16:23;23.30;99.90
35129;DHT22;21301;43.626;10.580;2022-11-02T13:18:52;22.90;99.90
35129;DHT22;21301;43.626;10.580;2022-11-02T13:21:41;22.90;99.90
35129;DHT22;21301;43.626;10.580;2022-11-02T13:24:14;23.00;99.90
35129;DHT22;21301;43.626;10.580;2022-11-02T13:26:43;23.00;99.90
35129;DHT22;21301;43.626;10.580;2022-11-02T13:29:36;23.00;99.90
35129;DHT22;21301;43.626;10.580;2022-11-02T13:32:38;23.10;99.90
35129;DHT22;21301;43.626;10.580;2022-11-02T13:37:44;23.10;99.90
35129;DHT22;21301;43.626;10.580;2022-11-02T13:40:24;23.00;99.90
35129;DHT22;21301;43.626;10.580;2022-11-02T13:54:09;23.00;99.90
35129;DHT22;21301;43.626;10.580;2022-11-02T13:56:36;22.80;99.90
35129;DHT22;21301;43.626;10.580;2022-11-02T13:59:08;22.80;99.90
35129;DHT22;21301;43.626;10.580;2022-11-02T14:01:38;22.90;99.90
35129;DHT22;21301;43.626;10.580;2022-11-02T14:04:08;22.70;99.90
35129;DHT22;21301;43.626;10.580;2022-11-02T14:06:57;22.60;99.90
35129;DHT22;21301;43.626;10.580;2022-11-02T14:09:37;22.40;99.90
35129;DHT22;21301;43.626;10.580;2022-11-02T14:12:54;22.30;99.90
35129;DHT22;21301;43.626;10.580;2022-11-02T14:25:46;22.70;99.90
35129;DHT22;21301;43.626;10.580;2022-11-02T14:30:52;22.50;99.90
35129;DHT22;21301;43.626;10.580;2022-11-02T14:33:53;22.40;99.90
35129;DHT22;21301;43.626;10.580;2022-11-02T14:45:44;22.10;99.90
35129;DHT22;21301;43.626;10.580;2022-11-02T14:48:15;22.10;99.90
35129;DHT22;21301;43.626;10.580;2022-11-02T14:50:43;22.00;99.90
35129;DHT22;21301;43.626;10.580;2022-11-02T14:53:26;21.90;99.90
35129;DHT22;21301;43.626;10.580;2022-11-02T14:55:55;21.80;99.90
35129;DHT22;21301;43.626;10.580;2022-11-02T14:58:23;21.80;99.90
35129;DHT22;21301;43.626;10.580;2022-11-02T15:08:48;21.60;99.90
35129;DHT22;21301;43.626;10.580;2022-11-02T15:11:49;21.70;99.90
35129;DHT22;21301;43.626;10.580;2022-11-02T15:14:49;21.80;99.90
35129;DHT22;21301;43.626;10.580;2022-11-02T15:19:47;21.80;99.90
35129;DHT22;21301;43.626;10.580;2022-11-02T15:22:35;21.70;99.90
35129;DHT22;21301;43.626;10.580;2022-11-02T15:25:19;21.60;99.90
35129;DHT22;21301;43.626;10.580;2022-11-02T15:27:45;21.50;99.90
35129;DHT22;21301;43.626;10.580;2022-11-02T15:30:19;21.50;99.90
35129;DHT22;21301;43.626;10.580;2022-11-02T15:32:58;21.50;99.90
35129;DHT22;21301;43.626;10.580;2022-11-02T15:35:29;21.50;99.90
35129;DHT22;21301;43.626;10.580;2022-11-02T15:37:58;21.50;99.90
35129;DHT22;21301;43.626;10.580;2022-11-02T15:43:21;21.40;99.90
35129;DHT22;21301;43.626;10.580;2022-11-02T15:48:45;21.30;99.90
35129;DHT22;21301;43.626;10.580;2022-11-02T15:53:50;21.20;99.90
35129;DHT22;21301;43.626;10.580;2022-11-02T16:03:45;20.90;99.90
35129;DHT22;21301;43.626;10.580;2022-11-02T16:06:12;20.90;99.90
35129;DHT22;21301;43.626;10.580;2022-11-02T16:08:38;20.80;99.90
35129;DHT22;21301;43.626;10.580;2022-11-02T16:11:12;20.80;99.90
35129;DHT22;21301;43.626;10.580;2022-11-02T16:13:42;20.70;99.90
35129;DHT22;21301;43.626;10.580;2022-11-02T16:16:13;20.70;99.90
35129;DHT22;21301;43.626;10.580;2022-11-02T16:18:41;20.60;99.90
35129;DHT22;21301;43.626;10.580;2022-11-02T16:21:16;20.60;99.90
35129;DHT22;21301;43.626;10.580;2022-11-02T16:23:50;20.50;99.90
35129;DHT22;21301;43.626;10.580;2022-11-02T16:26:24;20.50;99.90
35129;DHT22;21301;43.626;10.580;2022-11-02T16:28:53;20.40;99.90
35129;DHT22;21301;43.626;10.580;2022-11-02T16:31:21;20.40;99.90
35129;DHT22;21301;43.626;10.580;2022-11-02T16:36:16;20.30;99.90
35129;DHT22;21301;43.626;10.580;2022-11-02T16:39:12;20.30;99.90
35129;DHT22;21301;43.626;10.580;2022-11-02T16:41:46;20.30;99.90
35129;DHT22;21301;43.626;10.580;2022-11-02T16:44:19;20.30;99.90
35129;DHT22;21301;43.626;10.580;2022-11-02T16:46:48;20.30;99.90
35129;DHT22;21301;43.626;10.580;2022-11-02T16:51:51;20.30;99.90
35129;DHT22;21301;43.626;10.580;2022-11-02T16:54:39;20.20;99.90
35129;DHT22;21301;43.626;10.580;2022-11-02T16:57:15;20.20;99.90
35129;DHT22;21301;43.626;10.580;2022-11-02T16:59:58;20.20;99.90
35129;DHT22;21301;43.626;10.580;2022-11-02T17:04:56;20.10;99.90
35129;DHT22;21301;43.626;10.580;2022-11-02T17:07:34;20.00;99.90
35129;DHT22;21301;43.626;10.580;2022-11-02T17:10:02;20.00;99.90
35129;DHT22;21301;43.626;10.580;2022-11-02T17:12:35;20.00;99.90
35129;DHT22;21301;43.626;10.580;2022-11-02T17:15:10;20.00;99.90
35129;DHT22;21301;43.626;10.580;2022-11-02T17:17:38;20.00;99.90
35129;DHT22;21301;43.626;10.580;2022-11-02T17:22:49;20.00;99.90
35129;DHT22;21301;43.626;10.580;2022-11-02T17:25:21;20.00;99.90
35129;DHT22;21301;43.626;10.580;2022-11-02T17:27:49;20.00;99.90
35129;DHT22;21301;43.626;10.580;2022-11-02T17:33:20;20.10;99.90
35129;DHT22;21301;43.626;10.580;2022-11-02T17:35:48;20.00;99.90
35129;DHT22;21301;43.626;10.580;2022-11-02T17:38:15;20.00;99.90
35129;DHT22;21301;43.626;10.580;2022-11-02T17:40:41;19.90;99.90
35129;DHT22;21301;43.626;10.580;2022-11-02T17:43:07;19.90;99.90
35129;DHT22;21301;43.626;10.580;2022-11-02T17:45:35;19.90;99.90
35129;DHT22;21301;43.626;10.580;2022-11-02T17:48:08;19.80;99.90
35129;DHT22;21301;43.626;10.580;2022-11-02T17:50:36;19.70;99.90
35129;DHT22;21301;43.626;10.580;2022-11-02T17:53:03;19.70;99.90
35129;DHT22;21301;43.626;10.580;2022-11-02T17:55:32;19.70;99.90
35129;DHT22;21301;43.626;10.580;2022-11-02T17:57:59;19.60;99.90
35129;DHT22;21301;43.626;10.580;2022-11-02T18:00:26;19.60;99.90
35129;DHT22;21301;43.626;10.580;2022-11-02T18:02:54;19.60;99.90
35129;DHT22;21301;43.626;10.580;2022-11-02T18:07:55;19.60;99.90
35129;DHT22;21301;43.626;10.580;2022-11-02T18:10:25;19.60;99.90
35129;DHT22;21301;43.626;10.580;2022-11-02T18:12:51;19.50;99.90
35129;DHT22;21301;43.626;10.580;2022-11-02T18:15:22;19.50;99.90
35129;DHT22;21301;43.626;10.580;2022-11-02T18:17:48;19.50;99.90
35129;DHT22;21301;43.626;10.580;2022-11-02T18:20:15;19.50;99.90
35129;DHT22;21301;43.626;10.580;2022-11-02T18:22:41;19.50;99.90
35129;DHT22;21301;43.626;10.580;2022-11-02T18:25:10;19.50;99.90
35129;DHT22;21301;43.626;10.580;2022-11-02T18:27:37;19.50;99.90
35129;DHT22;21301;43.626;10.580;2022-11-02T18:30:05;19.50;99.90
35129;DHT22;21301;43.626;10.580;2022-11-02T18:32:34;19.40;99.90